Time;durP1;ratioP1;P1;durP2;ratioP2;P2;SDS_P1;SDS_P2;PMS_P1;PMS_P2;Temp;Humidity;BMP_temperature;BMP_pressure;BME280_temperature;BME280_humidity;BME280_pressure;Samples;Min_cycle;Max_cycle;Signal;HPM_P1;HPM_P2
2023/11/19 00:02:11;;;;;;;14.18;2.17;;;12.90;99.90;;;;;;6179239;23;20017;-73
2023/11/19 00:04:40;;;;;;;16.63;2.25;;;12.80;99.90;;;;;;6201922;23;20017;-73
2023/11/19 00:07:07;;;;;;;14.65;2.08;;;12.90;99.90;;;;;;6201092;23;20084;-73
2023/11/19 00:09:33;;;;;;;13.07;2.42;;;12.90;99.90;;;;;;6176761;23;20600;-72
2023/11/19 00:12:00;;;;;;;19.60;2.08;;;12.80;99.90;;;;;;6177577;23;20650;-74
2023/11/19 00:14:26;;;;;;;16.08;1.50;;;12.90;99.90;;;;;;6178576;23;20491;-73
2023/11/19 00:16:51;;;;;;;44.45;2.88;;;12.80;99.90;;;;;;6200332;23;20086;-73
2023/11/19 00:19:17;;;;;;;11.20;2.13;;;12.80;99.90;;;;;;6201818;23;20012;-73
2023/11/19 00:21:43;;;;;;;17.38;2.95;;;12.80;99.90;;;;;;6200488;23;20024;-74
2023/11/19 00:24:09;;;;;;;17.45;2.38;;;12.80;99.90;;;;;;6178343;23;20005;-75
2023/11/19 00:26:35;;;;;;;15.82;2.63;;;12.80;99.90;;;;;;6178604;23;20297;-73
2023/11/19 00:29:00;;;;;;;20.92;3.25;;;12.80;99.90;;;;;;6200898;23;20163;-73
2023/11/19 00:31:27;;;;;;;21.73;3.03;;;12.80;99.90;;;;;;6203978;23;20021;-74
2023/11/19 00:33:53;;;;;;;17.85;2.40;;;12.80;99.90;;;;;;6202724;23;20012;-72
2023/11/19 00:36:19;;;;;;;21.10;2.78;;;12.80;99.90;;;;;;6203406;23;20017;-72
2023/11/19 00:38:44;;;;;;;22.70;3.08;;;12.90;99.90;;;;;;6179314;23;20020;-73
2023/11/19 00:41:10;;;;;;;22.13;2.90;;;12.90;99.90;;;;;;6180338;23;20083;-72
2023/11/19 00:43:36;;;;;;;23.95;4.70;;;12.90;99.90;;;;;;6204008;23;20102;-73
2023/11/19 00:46:03;;;;;;;15.73;2.95;;;12.90;99.90;;;;;;6202694;23;20455;-75
2023/11/19 00:48:28;;;;;;;14.02;1.88;;;12.90;99.90;;;;;;6204058;23;20017;-72
2023/11/19 00:50:54;;;;;;;27.02;3.55;;;13.00;99.90;;;;;;6179061;23;20044;-74
2023/11/19 00:53:19;;;;;;;20.05;3.17;;;12.90;99.90;;;;;;6203627;23;20017;-73
2023/11/19 00:55:45;;;;;;;21.10;2.85;;;12.90;99.90;;;;;;6177493;23;20013;-74
2023/11/19 00:58:10;;;;;;;25.95;2.40;;;12.80;99.90;;;;;;6203271;23;20021;-72
2023/11/19 01:00:36;;;;;;;24.48;2.90;;;12.80;99.90;;;;;;6203804;23;20013;-72
2023/11/19 01:03:02;;;;;;;22.15;3.60;;;12.80;99.90;;;;;;6177446;23;20398;-74
2023/11/19 01:05:28;;;;;;;24.17;2.75;;;12.70;99.90;;;;;;6203343;23;20017;-72
2023/11/19 01:07:54;;;;;;;27.98;3.92;;;12.80;99.90;;;;;;6202499;23;20056;-72
2023/11/19 01:10:20;;;;;;;24.85;3.63;;;12.80;99.90;;;;;;6203855;23;20370;-76
2023/11/19 01:12:46;;;;;;;27.08;2.83;;;12.80;99.90;;;;;;6202588;23;20009;-73
2023/11/19 01:15:12;;;;;;;23.23;3.08;;;12.80;99.90;;;;;;6203132;23;20045;-74
2023/11/19 01:17:38;;;;;;;23.77;2.97;;;12.80;99.90;;;;;;6178648;23;20075;-72
2023/11/19 01:20:06;;;;;;;27.50;2.88;;;12.80;99.90;;;;;;6202364;23;20443;-72
2023/11/19 01:22:32;;;;;;;18.92;2.33;;;12.80;99.90;;;;;;6180278;23;20009;-73
2023/11/19 01:24:58;;;;;;;19.70;3.65;;;12.80;99.90;;;;;;6202200;23;20005;-73
2023/11/19 01:27:24;;;;;;;25.67;3.58;;;12.70;99.90;;;;;;6203116;23;20055;-76
2023/11/19 01:29:50;;;;;;;34.10;4.78;;;12.70;99.90;;;;;;6178631;23;20016;-75
2023/11/19 01:32:15;;;;;;;26.35;4.30;;;12.70;99.90;;;;;;6203334;23;20005;-74
2023/11/19 01:34:41;;;;;;;30.80;4.03;;;12.70;99.90;;;;;;6202922;23;20060;-72
2023/11/19 01:37:09;;;;;;;38.22;3.95;;;12.70;99.90;;;;;;6177112;23;20079;-73
2023/11/19 01:39:34;;;;;;;25.98;4.72;;;12.70;99.90;;;;;;6203323;23;20040;-75
2023/11/19 01:42:00;;;;;;;27.13;3.38;;;12.60;99.90;;;;;;6202012;23;20017;-73
2023/11/19 01:44:25;;;;;;;30.23;3.88;;;12.70;99.90;;;;;;6177472;23;20009;-72
2023/11/19 01:46:52;;;;;;;25.13;3.03;;;12.60;99.90;;;;;;6201206;23;20013;-72
2023/11/19 01:49:19;;;;;;;25.45;4.43;;;12.50;99.90;;;;;;6202441;23;20017;-75
2023/11/19 01:51:46;;;;;;;29.45;4.68;;;12.50;99.90;;;;;;6176483;23;20071;-75
2023/11/19 01:54:12;;;;;;;24.63;5.13;;;12.40;99.90;;;;;;6177654;23;20013;-72
2023/11/19 01:56:40;;;;;;;22.42;5.45;;;12.40;99.90;;;;;;6177870;23;20059;-73
2023/11/19 01:59:07;;;;;;;29.67;3.20;;;12.40;99.90;;;;;;6201368;23;20005;-72
2023/11/19 02:01:37;;;;;;;35.53;4.80;;;12.30;99.90;;;;;;6202301;23;20013;-73
2023/11/19 02:04:04;;;;;;;32.53;4.03;;;12.20;99.90;;;;;;6201189;23;20009;-81
2023/11/19 02:06:33;;;;;;;22.60;5.07;;;12.30;99.90;;;;;;6200660;23;20442;-71
2023/11/19 02:08:58;;;;;;;25.45;3.95;;;12.20;99.90;;;;;;6200388;23;20101;-73
2023/11/19 02:11:29;;;;;;;26.05;3.50;;;12.10;99.90;;;;;;6176515;23;20037;-74
2023/11/19 02:13:55;;;;;;;;;;;12.10;99.90;;;;;;6175924;23;20024;-72
2023/11/19 02:16:21;;;;;;;33.65;5.30;;;12.00;99.90;;;;;;6201107;23;19935;-74
2023/11/19 02:18:46;;;;;;;34.33;4.18;;;12.00;99.90;;;;;;6199643;23;20443;-73
2023/11/19 02:21:14;;;;;;;29.00;6.03;;;12.00;99.90;;;;;;6201932;23;20415;-73
2023/11/19 02:23:41;;;;;;;27.70;3.80;;;11.90;99.90;;;;;;6201809;23;20448;-75
2023/11/19 02:26:28;;;;;;;39.10;4.70;;;11.90;99.90;;;;;;6200507;23;20040;-73
2023/11/19 02:28:54;;;;;;;32.58;4.60;;;11.90;99.90;;;;;;6175776;23;20028;-75
2023/11/19 02:31:20;;;;;;;32.50;5.43;;;11.90;99.90;;;;;;6202398;23;20092;-72
2023/11/19 02:33:45;;;;;;;32.88;4.80;;;11.90;99.90;;;;;;6201507;23;20075;-73
2023/11/19 02:36:11;;;;;;;29.65;4.18;;;11.90;99.90;;;;;;6202242;23;20021;-73
2023/11/19 02:38:37;;;;;;;35.75;4.65;;;11.90;99.90;;;;;;6202682;23;20093;-74
2023/11/19 02:41:06;;;;;;;37.75;5.15;;;12.00;99.90;;;;;;6201391;23;20005;-74
2023/11/19 02:43:37;;;;;;;26.95;4.55;;;11.90;99.90;;;;;;6178978;23;20036;-73
2023/11/19 02:46:10;;;;;;;26.80;5.28;;;11.90;99.90;;;;;;6200712;23;20017;-73
2023/11/19 02:48:36;;;;;;;34.42;4.53;;;11.90;99.90;;;;;;6202574;23;20064;-73
2023/11/19 02:51:03;;;;;;;25.45;3.75;;;11.90;99.90;;;;;;6177389;23;20025;-72
2023/11/19 02:53:30;;;;;;;43.58;5.63;;;11.90;99.90;;;;;;6201584;23;20009;-73
2023/11/19 02:56:01;;;;;;;27.45;4.22;;;11.90;99.90;;;;;;6200887;23;20013;-75
2023/11/19 02:58:28;;;;;;;31.10;4.95;;;11.90;99.90;;;;;;6202050;23;20076;-73
2023/11/19 03:00:57;;;;;;;38.08;6.43;;;11.90;99.90;;;;;;6175295;23;20021;-75
2023/11/19 03:03:38;;;;;;;29.95;5.20;;;11.80;99.90;;;;;;6202030;23;20013;-72
2023/11/19 03:06:04;;;;;;;;;;;11.80;99.90;;;;;;6200901;23;20001;-73
2023/11/19 03:08:30;;;;;;;30.67;4.55;;;11.70;99.90;;;;;;6202157;23;19919;-74
2023/11/19 03:10:55;;;;;;;35.10;3.83;;;11.70;99.90;;;;;;6177643;23;20142;-74
2023/11/19 03:13:21;;;;;;;34.35;5.50;;;11.70;99.90;;;;;;6177089;23;20324;-73
2023/11/19 03:15:47;;;;;;;27.77;3.67;;;11.60;99.90;;;;;;6200401;22;20056;-75
2023/11/19 03:18:13;;;;;;;38.95;5.40;;;11.50;99.90;;;;;;6202046;23;20032;-76
2023/11/19 03:20:38;;;;;;;32.38;4.22;;;11.50;99.90;;;;;;6176855;23;20021;-73
2023/11/19 03:23:04;;;;;;;24.42;4.07;;;11.50;99.90;;;;;;6201119;23;20071;-71
2023/11/19 03:25:33;;;;;;;33.72;4.97;;;11.50;99.90;;;;;;6201898;23;20020;-72
2023/11/19 03:28:03;;;;;;;31.60;4.38;;;11.50;99.90;;;;;;6200692;23;20661;-73
2023/11/19 03:30:29;;;;;;;29.40;3.78;;;11.40;99.90;;;;;;6176968;23;20020;-72
2023/11/19 03:32:56;;;;;;;42.45;7.05;;;11.50;99.90;;;;;;6200616;23;20029;-72
2023/11/19 03:35:22;;;;;;;41.40;6.47;;;11.40;99.90;;;;;;6201836;23;20021;-72
2023/11/19 03:37:47;;;;;;;29.50;4.53;;;11.30;99.90;;;;;;6200838;23;20020;-73
2023/11/19 03:40:13;;;;;;;34.50;4.68;;;11.30;99.90;;;;;;6201995;23;20044;-72
2023/11/19 03:42:41;;;;;;;39.22;5.85;;;11.30;99.90;;;;;;6178582;23;20399;-73
2023/11/19 03:45:10;;;;;;;34.78;5.28;;;11.30;99.90;;;;;;6200470;23;20009;-74
2023/11/19 03:47:36;;;;;;;41.00;5.35;;;11.30;99.90;;;;;;6202154;23;20179;-76
2023/11/19 03:50:03;;;;;;;29.45;5.20;;;11.20;99.90;;;;;;6200482;23;20033;-73
2023/11/19 03:52:29;;;;;;;35.35;4.10;;;11.20;99.90;;;;;;6201657;23;20036;-74
2023/11/19 03:54:56;;;;;;;34.13;6.10;;;11.20;99.90;;;;;;6200522;23;20067;-75
2023/11/19 03:57:21;;;;;;;34.35;4.50;;;11.20;99.90;;;;;;6202001;23;20021;-73
2023/11/19 03:59:47;;;;;;;33.15;5.70;;;11.20;99.90;;;;;;6200629;23;20048;-72
2023/11/19 04:02:13;;;;;;;39.78;5.05;;;11.20;99.90;;;;;;6178452;23;20013;-75
2023/11/19 04:04:39;;;;;;;32.78;6.05;;;11.10;99.90;;;;;;6202854;23;20037;-72
2023/11/19 04:07:05;;;;;;;32.08;4.18;;;11.10;99.90;;;;;;6179466;23;20770;-73
2023/11/19 04:09:32;;;;;;;42.35;6.53;;;11.10;99.90;;;;;;6180738;23;20320;-73
2023/11/19 04:11:58;;;;;;;32.67;4.72;;;11.10;99.90;;;;;;6179942;23;20439;-74
2023/11/19 04:14:24;;;;;;;33.65;4.30;;;11.10;99.90;;;;;;6178767;23;20009;-73
2023/11/19 04:16:51;;;;;;;35.67;4.80;;;11.00;99.90;;;;;;6202332;23;20087;-74
2023/11/19 04:19:16;;;;;;;37.17;5.70;;;11.10;99.90;;;;;;6203872;23;20104;-76
2023/11/19 04:21:42;;;;;;;36.45;6.28;;;11.10;99.90;;;;;;6180543;23;20033;-74
2023/11/19 04:24:12;;;;;;;37.63;4.43;;;11.10;99.90;;;;;;6178316;23;20436;-74
2023/11/19 04:26:44;;;;;;;41.22;4.57;;;11.10;99.90;;;;;;6178792;23;20020;-73
2023/11/19 04:29:16;;;;;;;25.90;4.75;;;11.00;99.90;;;;;;6178739;23;20024;-75
2023/11/19 04:31:42;;;;;;;40.13;6.47;;;11.00;99.90;;;;;;6180661;23;20466;-75
2023/11/19 04:34:08;;;;;;;37.25;5.35;;;11.00;99.90;;;;;;6178300;23;20013;-75
2023/11/19 04:36:34;;;;;;;40.13;5.68;;;11.00;99.90;;;;;;6180324;23;20565;-75
2023/11/19 04:39:00;;;;;;;42.03;6.18;;;11.00;99.90;;;;;;6202510;23;20009;-75
2023/11/19 04:41:27;;;;;;;33.17;4.82;;;10.90;99.90;;;;;;6178819;23;20478;-74
2023/11/19 04:43:53;;;;;;;35.13;5.07;;;10.90;99.90;;;;;;6179451;23;20052;-74
2023/11/19 04:46:19;;;;;;;35.15;5.25;;;11.00;99.90;;;;;;6179924;23;20021;-74
2023/11/19 04:48:44;;;;;;;43.72;6.45;;;11.00;99.90;;;;;;6179303;23;20015;-74
2023/11/19 04:51:10;;;;;;;44.83;6.70;;;10.90;99.90;;;;;;6203686;23;20036;-75
2023/11/19 04:53:35;;;;;;;36.53;6.25;;;11.00;99.90;;;;;;6179247;23;20087;-76
2023/11/19 04:56:07;;;;;;;29.17;5.65;;;10.90;99.90;;;;;;6179698;23;20013;-75
2023/11/19 04:58:33;;;;;;;37.33;5.28;;;10.90;99.90;;;;;;6204516;23;20013;-75
2023/11/19 05:00:59;;;;;;;33.63;5.22;;;10.90;99.90;;;;;;6179662;23;20072;-75
2023/11/19 05:03:24;;;;;;;40.03;6.95;;;10.90;99.90;;;;;;6204430;23;20013;-75
2023/11/19 05:05:50;;;;;;;40.25;5.47;;;10.90;99.90;;;;;;6179547;23;20039;-75
2023/11/19 05:08:16;;;;;;;31.58;4.32;;;10.90;99.90;;;;;;6203985;23;20013;-75
2023/11/19 05:10:41;;;;;;;32.38;4.70;;;10.90;99.90;;;;;;6180812;23;20013;-75
2023/11/19 05:13:07;;;;;;;39.83;5.32;;;10.90;99.90;;;;;;6202605;23;20013;-75
2023/11/19 05:15:33;;;;;;;26.83;4.63;;;10.80;99.90;;;;;;6179998;23;20017;-75
2023/11/19 05:17:58;;;;;;;34.17;5.25;;;10.80;99.90;;;;;;6177751;23;20045;-75
2023/11/19 05:20:24;;;;;;;26.17;3.55;;;10.80;99.90;;;;;;6180228;23;20013;-75
2023/11/19 05:22:51;;;;;;;38.15;4.68;;;10.80;99.90;;;;;;6201973;23;20006;-75
2023/11/19 05:25:17;;;;;;;36.05;4.90;;;10.80;99.90;;;;;;6180584;23;20013;-74
2023/11/19 05:27:42;;;;;;;49.42;5.72;;;10.80;99.90;;;;;;6203376;23;20020;-74
2023/11/19 05:30:10;;;;;;;25.73;3.65;;;10.80;99.90;;;;;;6202305;23;20080;-74
2023/11/19 05:32:36;;;;;;;39.92;5.53;;;10.80;99.90;;;;;;6203766;23;20024;-76
2023/11/19 05:35:01;;;;;;;44.80;4.93;;;10.80;99.90;;;;;;6178997;23;20009;-75
2023/11/19 05:37:27;;;;;;;40.88;3.97;;;10.80;99.90;;;;;;6203617;23;20051;-74
2023/11/19 05:39:53;;;;;;;27.80;4.90;;;10.80;99.90;;;;;;6202277;23;20036;-74
2023/11/19 05:42:18;;;;;;;26.80;4.32;;;10.80;99.90;;;;;;6203091;23;20009;-74
2023/11/19 05:44:44;;;;;;;40.15;6.43;;;10.80;99.90;;;;;;6179281;23;20009;-76
2023/11/19 05:47:10;;;;;;;27.60;4.25;;;10.70;99.90;;;;;;6180532;23;20072;-75
2023/11/19 05:49:35;;;;;;;32.78;4.78;;;10.70;99.90;;;;;;6203988;23;20024;-75
2023/11/19 05:52:03;;;;;;;32.13;3.90;;;10.70;99.90;;;;;;6202640;23;20020;-73
2023/11/19 05:54:28;;;;;;;32.75;4.72;;;10.70;99.90;;;;;;6203841;23;20658;-76
2023/11/19 05:56:54;;;;;;;22.20;3.83;;;10.80;99.90;;;;;;6177164;23;20012;-76
2023/11/19 05:59:22;;;;;;;36.95;5.35;;;10.80;99.90;;;;;;6204376;23;20041;-75
2023/11/19 06:01:48;;;;;;;33.10;4.13;;;10.80;99.90;;;;;;6203646;23;20013;-75
2023/11/19 06:04:13;;;;;;;29.75;5.22;;;10.80;99.90;;;;;;6204693;23;20062;-74
2023/11/19 06:06:40;;;;;;;37.65;5.38;;;10.80;99.90;;;;;;6203458;23;20463;-75
2023/11/19 06:09:06;;;;;;;35.75;4.20;;;10.80;99.90;;;;;;6177400;23;20013;-74
2023/11/19 06:11:33;;;;;;;50.38;5.82;;;10.80;99.90;;;;;;6204306;23;20017;-75
2023/11/19 06:13:59;;;;;;;40.90;5.00;;;10.80;99.90;;;;;;6178791;23;20021;-75
2023/11/19 06:16:25;;;;;;;23.35;4.82;;;10.70;99.90;;;;;;6203386;23;20017;-76
2023/11/19 06:18:50;;;;;;;33.13;5.18;;;10.80;99.90;;;;;;6178808;23;20009;-75
2023/11/19 06:21:16;;;;;;;40.80;4.55;;;10.70;99.90;;;;;;6203224;23;20016;-75
2023/11/19 06:23:42;;;;;;;32.55;5.65;;;10.70;99.90;;;;;;6180263;23;20013;-75
2023/11/19 06:26:08;;;;;;;24.30;3.13;;;10.70;99.90;;;;;;6201634;23;20013;-76
2023/11/19 06:28:34;;;;;;;26.15;4.18;;;10.60;99.90;;;;;;6180089;23;20025;-75
2023/11/19 06:30:59;;;;;;;41.95;5.60;;;10.70;99.90;;;;;;6202499;23;20020;-76
2023/11/19 06:33:25;;;;;;;31.88;4.10;;;10.60;99.90;;;;;;6203655;23;20016;-74
2023/11/19 06:35:52;;;;;;;30.05;5.18;;;10.60;99.90;;;;;;6180023;23;20017;-76
2023/11/19 06:38:17;;;;;;;38.90;6.32;;;10.60;99.90;;;;;;6203663;23;20128;-73
2023/11/19 06:40:43;;;;;;;38.45;4.03;;;10.60;99.90;;;;;;6180319;23;20013;-75
2023/11/19 06:43:08;;;;;;;40.15;4.97;;;10.70;99.90;;;;;;6177774;23;20095;-74
2023/11/19 06:45:34;;;;;;;24.13;4.82;;;10.60;99.90;;;;;;6178726;23;20017;-75
2023/11/19 06:48:04;;;;;;;40.92;4.32;;;10.60;99.90;;;;;;6177121;23;20076;-75
2023/11/19 06:50:30;;;;;;;21.58;2.58;;;10.60;99.90;;;;;;6203017;23;20378;-75
2023/11/19 06:52:56;;;;;;;37.95;5.50;;;10.60;99.90;;;;;;6201688;23;20013;-76
2023/11/19 06:55:21;;;;;;;39.65;5.88;;;10.50;99.90;;;;;;6203570;23;20021;-75
2023/11/19 06:57:47;;;;;;;39.88;4.28;;;10.50;99.90;;;;;;6178608;23;20485;-75
2023/11/19 07:00:13;;;;;;;32.05;5.28;;;10.50;99.90;;;;;;6177988;23;20040;-75
2023/11/19 07:02:39;;;;;;;35.13;5.47;;;10.50;99.90;;;;;;6180070;23;20017;-75
2023/11/19 07:05:05;;;;;;;33.88;5.57;;;10.60;99.90;;;;;;6202161;23;20013;-74
2023/11/19 07:07:32;;;;;;;23.80;4.10;;;10.60;99.90;;;;;;6203333;23;20005;-75
2023/11/19 07:09:58;;;;;;;32.85;4.70;;;10.60;99.90;;;;;;6203318;23;20016;-76
2023/11/19 07:12:26;;;;;;;26.40;5.35;;;10.70;99.90;;;;;;6203933;23;20021;-74
2023/11/19 07:14:52;;;;;;;19.80;4.45;;;10.60;99.90;;;;;;6202063;23;20028;-75
2023/11/19 07:17:18;;;;;;;32.67;5.15;;;10.60;99.90;;;;;;6203193;23;20351;-76
2023/11/19 07:19:44;;;;;;;24.45;4.30;;;10.60;99.90;;;;;;6202527;23;20104;-78
2023/11/19 07:22:11;;;;;;;35.95;4.00;;;10.70;99.90;;;;;;6180442;23;20379;-75
2023/11/19 07:24:39;;;;;;;26.80;3.20;;;10.70;99.90;;;;;;6179195;23;20012;-75
2023/11/19 07:27:04;;;;;;;37.97;3.78;;;10.80;99.90;;;;;;6201662;23;20020;-75
2023/11/19 07:29:31;;;;;;;25.17;4.25;;;10.80;99.90;;;;;;6203721;23;20041;-75
2023/11/19 07:31:57;;;;;;;35.75;5.75;;;10.80;99.90;;;;;;6202086;23;20063;-74
2023/11/19 07:34:23;;;;;;;28.58;3.40;;;10.90;99.90;;;;;;6202854;23;20009;-75
2023/11/19 07:36:49;;;;;;;30.70;3.80;;;10.90;99.90;;;;;;6201449;23;20043;-75
2023/11/19 07:39:14;;;;;;;33.90;4.10;;;10.90;99.90;;;;;;6204779;23;20008;-76
2023/11/19 07:41:40;;;;;;;34.08;3.95;;;11.00;99.90;;;;;;6182292;23;20027;-75
2023/11/19 07:44:06;;;;;;;37.88;5.10;;;11.00;99.90;;;;;;6179783;23;20539;-75
2023/11/19 07:46:32;;;;;;;27.52;5.25;;;11.00;99.90;;;;;;6205584;23;20017;-75
2023/11/19 07:48:57;;;;;;;18.23;4.38;;;11.00;99.90;;;;;;6181165;23;20017;-75
2023/11/19 07:51:23;;;;;;;41.65;5.57;;;11.00;99.90;;;;;;6180533;23;20485;-76
2023/11/19 07:53:49;;;;;;;28.83;4.97;;;11.10;99.90;;;;;;6204123;23;20017;-74
2023/11/19 07:56:15;;;;;;;34.00;6.57;;;11.10;99.90;;;;;;6182224;23;20045;-74
2023/11/19 07:58:41;;;;;;;30.70;4.45;;;11.10;99.90;;;;;;6204653;23;20414;-76
2023/11/19 08:01:07;;;;;;;34.25;4.47;;;11.10;99.90;;;;;;6204501;22;20462;-75
2023/11/19 08:03:35;;;;;;;42.83;4.78;;;11.10;99.90;;;;;;6205656;23;20020;-75
2023/11/19 08:06:01;;;;;;;26.13;5.05;;;11.10;99.90;;;;;;6204577;23;20012;-76
2023/11/19 08:08:29;;;;;;;37.25;5.03;;;11.20;99.90;;;;;;6205500;22;20013;-74
2023/11/19 08:10:56;;;;;;;28.15;5.90;;;11.20;99.90;;;;;;6204726;23;20436;-76
2023/11/19 08:13:23;;;;;;;32.38;5.68;;;11.20;99.90;;;;;;6182086;23;20016;-75
2023/11/19 08:15:48;;;;;;;45.38;6.47;;;11.30;99.90;;;;;;6180606;23;20052;-75
2023/11/19 08:18:14;;;;;;;27.02;5.15;;;11.30;99.90;;;;;;6203241;23;20037;-75
2023/11/19 08:20:39;;;;;;;35.20;4.85;;;11.40;99.90;;;;;;6179864;23;20037;-75
2023/11/19 08:23:05;;;;;;;33.42;4.60;;;11.40;99.90;;;;;;6179540;23;20016;-75
2023/11/19 08:25:31;;;;;;;41.00;5.78;;;11.40;99.90;;;;;;6204356;23;20220;-74
2023/11/19 08:27:56;;;;;;;37.45;4.07;;;11.40;99.90;;;;;;6202336;23;20028;-75
2023/11/19 08:30:22;;;;;;;27.63;4.25;;;11.40;99.90;;;;;;6204207;23;20005;-76
2023/11/19 08:32:48;;;;;;;31.55;4.78;;;11.50;99.90;;;;;;6202876;23;20001;-75
2023/11/19 08:35:13;;;;;;;44.92;5.43;;;11.50;99.90;;;;;;6204443;23;20009;-75
2023/11/19 08:37:39;;;;;;;33.92;3.63;;;11.40;99.90;;;;;;6203766;23;20072;-75
2023/11/19 08:40:05;;;;;;;35.05;5.30;;;11.50;99.90;;;;;;6202327;23;20013;-75
2023/11/19 08:42:31;;;;;;;34.53;4.50;;;11.50;99.90;;;;;;6203500;23;20439;-75
2023/11/19 08:44:56;;;;;;;35.53;5.68;;;11.50;99.90;;;;;;6202634;23;20027;-75
2023/11/19 08:47:25;;;;;;;33.22;4.65;;;11.50;99.90;;;;;;6181003;23;20071;-75
2023/11/19 08:49:52;;;;;;;33.45;4.63;;;11.60;99.90;;;;;;6176940;23;20111;-76
2023/11/19 08:52:18;;;;;;;28.85;5.03;;;11.60;99.90;;;;;;6179664;23;20031;-75
2023/11/19 08:54:43;;;;;;;35.80;5.00;;;11.60;99.90;;;;;;6202320;23;20035;-75
2023/11/19 08:57:09;;;;;;;26.25;3.72;;;11.70;99.90;;;;;;6200232;23;20024;-75
2023/11/19 08:59:35;;;;;;;27.98;4.40;;;11.60;99.90;;;;;;6179151;23;20017;-75
2023/11/19 09:02:01;;;;;;;32.08;5.47;;;11.70;99.90;;;;;;6201143;23;20502;-74
2023/11/19 09:04:27;;;;;;;35.45;5.13;;;11.80;99.90;;;;;;6177035;23;20020;-76
2023/11/19 09:06:53;;;;;;;30.52;4.05;;;11.90;99.90;;;;;;6200386;23;20343;-74
2023/11/19 09:09:19;;;;;;;31.08;4.22;;;11.90;99.90;;;;;;6201633;23;20024;-75
2023/11/19 09:11:44;;;;;;;22.30;3.72;;;11.90;99.90;;;;;;6201750;23;20017;-76
2023/11/19 09:14:10;;;;;;;33.88;5.65;;;11.90;99.90;;;;;;6176148;23;20080;-76
2023/11/19 09:16:35;;;;;;;35.25;4.70;;;11.90;99.90;;;;;;6201684;23;20019;-75
2023/11/19 09:19:02;;;;;;;30.95;3.88;;;11.90;99.90;;;;;;6177125;23;20451;-75
2023/11/19 09:21:29;;;;;;;25.33;4.63;;;11.90;99.90;;;;;;6201757;23;20017;-74
2023/11/19 09:23:55;;;;;;;35.22;4.57;;;12.00;99.90;;;;;;6178070;23;20024;-74
2023/11/19 09:26:21;;;;;;;35.83;4.53;;;12.10;99.90;;;;;;6201925;23;20013;-75
2023/11/19 09:28:47;;;;;;;27.13;3.78;;;12.10;99.90;;;;;;6200760;23;20348;-76
2023/11/19 09:31:18;;;;;;;30.25;3.55;;;12.10;99.90;;;;;;6201637;23;20009;-76
2023/11/19 09:33:45;;;;;;;22.08;3.22;;;12.10;99.90;;;;;;6202118;23;20036;-76
2023/11/19 09:36:14;;;;;;;19.83;3.40;;;12.10;99.90;;;;;;6177293;23;20044;-74
2023/11/19 09:38:40;;;;;;;23.65;3.45;;;12.20;99.90;;;;;;6177835;23;20024;-75
2023/11/19 09:41:08;;;;;;;27.33;4.10;;;12.10;99.90;;;;;;6178172;23;20009;-76
2023/11/19 09:43:36;;;;;;;25.58;3.83;;;12.30;99.90;;;;;;6203298;23;20037;-75
2023/11/19 09:46:09;;;;;;;33.35;3.88;;;12.30;99.90;;;;;;6177101;23;20462;-75
2023/11/19 09:48:37;;;;;;;31.90;5.43;;;12.40;99.90;;;;;;6203362;23;20352;-75
2023/11/19 09:51:04;;;;;;;35.05;4.20;;;12.40;99.90;;;;;;6201706;23;20005;-75
2023/11/19 09:53:29;;;;;;;26.17;3.60;;;12.30;99.90;;;;;;6202984;23;20021;-76
2023/11/19 09:55:56;;;;;;;43.85;4.65;;;12.30;99.90;;;;;;6201680;23;20017;-75
2023/11/19 09:58:22;;;;;;;30.80;3.88;;;12.50;99.90;;;;;;6202310;23;20040;-75
2023/11/19 10:00:49;;;;;;;21.25;3.38;;;12.50;99.90;;;;;;6178557;23;20013;-74
2023/11/19 10:03:16;;;;;;;25.00;4.72;;;12.50;99.90;;;;;;6201889;23;20017;-75
2023/11/19 10:05:41;;;;;;;25.27;3.10;;;12.60;99.90;;;;;;6179572;23;20064;-75
2023/11/19 10:08:07;;;;;;;27.33;4.82;;;12.70;99.90;;;;;;6176501;23;20012;-75
2023/11/19 10:10:34;;;;;;;31.77;4.32;;;12.80;99.90;;;;;;6202901;23;20039;-75
2023/11/19 10:13:00;;;;;;;29.02;4.90;;;13.00;99.90;;;;;;6201816;23;20095;-75
2023/11/19 10:15:26;;;;;;;36.88;4.80;;;13.10;99.90;;;;;;6202585;23;20017;-75
2023/11/19 10:17:56;;;;;;;24.02;4.80;;;13.10;99.90;;;;;;6202114;23;20339;-74
2023/11/19 10:20:22;;;;;;;46.30;3.53;;;13.10;99.90;;;;;;6202675;23;20063;-76
2023/11/19 10:22:48;;;;;;;16.75;3.15;;;13.20;99.90;;;;;;6201196;23;20012;-74
2023/11/19 10:25:26;;;;;;;24.65;5.53;;;13.20;99.90;;;;;;6177483;23;20024;-74
2023/11/19 10:27:52;;;;;;;27.90;4.07;;;13.20;99.90;;;;;;6202446;23;20021;-74
2023/11/19 10:30:22;;;;;;;19.25;2.97;;;13.20;99.90;;;;;;6206588;23;20030;-79
2023/11/19 10:33:07;;;;;;;21.02;3.42;;;13.30;99.90;;;;;;6203946;23;20016;-76
2023/11/19 10:35:50;;;;;;;29.38;4.88;;;13.30;99.90;;;;;;6180959;23;20028;-77
2023/11/19 10:38:16;;;;;;;27.65;5.13;;;13.30;99.90;;;;;;6177667;23;20039;-76
2023/11/19 10:40:41;;;;;;;36.03;4.28;;;13.40;99.90;;;;;;6204444;23;20082;-76
2023/11/19 10:43:08;;;;;;;29.70;4.82;;;13.50;99.90;;;;;;6202616;23;20005;-76
2023/11/19 10:45:34;;;;;;;27.58;3.78;;;13.60;99.90;;;;;;6206533;23;20076;-76
2023/11/19 10:48:04;;;;;;;25.65;4.63;;;13.90;99.90;;;;;;6203421;23;20470;-77
2023/11/19 10:50:30;;;;;;;25.80;3.43;;;14.20;99.90;;;;;;6204766;23;20009;-76
2023/11/19 10:53:00;;;;;;;25.77;3.83;;;14.40;99.90;;;;;;6179559;23;20016;-74
2023/11/19 10:55:29;;;;;;;14.23;3.10;;;14.30;99.90;;;;;;6203890;22;20017;-75
2023/11/19 10:58:03;;;;;;;22.63;2.63;;;14.20;99.90;;;;;;6202502;23;20563;-76
2023/11/19 11:00:31;;;;;;;23.08;3.90;;;14.10;99.90;;;;;;6204043;23;20080;-77
2023/11/19 11:03:01;;;;;;;22.05;3.35;;;14.00;99.90;;;;;;6178669;23;20005;-76
2023/11/19 11:05:27;;;;;;;19.47;2.77;;;13.90;99.90;;;;;;6206594;23;20064;-78
2023/11/19 11:07:55;;;;;;;25.70;5.28;;;13.80;99.90;;;;;;6202916;22;20240;-76
2023/11/19 11:10:26;;;;;;;20.40;2.95;;;13.70;99.90;;;;;;6203442;23;20020;-76
2023/11/19 11:12:58;;;;;;;16.77;2.55;;;13.60;99.90;;;;;;6202526;23;20044;-76
2023/11/19 11:15:29;;;;;;;21.27;3.10;;;13.60;99.90;;;;;;6204549;23;20013;-77
2023/11/19 11:17:59;;;;;;;22.27;3.55;;;13.60;99.90;;;;;;6202303;23;20013;-77
2023/11/19 11:20:25;;;;;;;28.40;4.38;;;13.70;99.90;;;;;;6202455;23;20005;-74
2023/11/19 11:23:18;;;;;;;16.23;3.40;;;13.60;99.90;;;;;;6202375;23;20027;-76
2023/11/19 11:26:16;;;;;;;24.88;3.85;;;13.50;99.90;;;;;;6204773;23;20027;-77
2023/11/19 11:28:56;;;;;;;18.48;2.13;;;13.30;99.90;;;;;;6202531;23;20359;-74
2023/11/19 11:31:40;;;;;;;23.80;3.70;;;13.20;99.90;;;;;;6177273;23;20051;-76
2023/11/19 11:34:13;;;;;;;21.67;3.17;;;13.20;99.90;;;;;;6203829;23;20182;-75
2023/11/19 11:37:36;;;;;;;30.30;5.57;;;13.20;99.90;;;;;;6201501;23;20024;-76
2023/11/19 11:40:10;;;;;;;30.08;4.43;;;13.20;99.90;;;;;;6062133;23;20093;-76
2023/11/19 11:42:39;;;;;;;21.05;3.92;;;13.20;99.90;;;;;;6184320;23;20017;-77
2023/11/19 11:45:08;;;;;;;26.80;4.32;;;13.20;99.90;;;;;;6201331;23;20079;-75
2023/11/19 11:47:43;;;;;;;24.73;2.80;;;13.20;99.90;;;;;;6202354;23;20017;-77
2023/11/19 11:50:13;;;;;;;20.27;3.35;;;13.20;99.90;;;;;;6201603;23;20016;-76
2023/11/19 11:52:57;;;;;;;25.33;4.03;;;13.20;99.90;;;;;;6203257;23;20464;-76
2023/11/19 11:55:37;;;;;;;20.70;3.78;;;13.20;99.90;;;;;;6203248;23;20347;-76
2023/11/19 11:58:04;;;;;;;21.03;3.93;;;13.30;99.90;;;;;;6202192;23;20166;-75
2023/11/19 12:00:30;;;;;;;32.50;4.82;;;13.30;99.90;;;;;;6178498;23;20016;-76
2023/11/19 12:02:58;;;;;;;17.98;2.90;;;13.30;99.90;;;;;;6199910;23;20016;-76
2023/11/19 12:05:24;;;;;;;21.15;3.05;;;13.40;99.90;;;;;;6178440;23;20013;-76
2023/11/19 12:08:01;;;;;;;25.38;4.93;;;13.40;99.90;;;;;;6201960;23;20059;-76
2023/11/19 12:10:31;;;;;;;16.75;3.88;;;13.40;99.90;;;;;;6202278;23;20023;-74
2023/11/19 12:13:00;;;;;;;29.63;3.15;;;13.40;99.90;;;;;;6202172;23;20100;-75
2023/11/19 12:15:27;;;;;;;14.85;2.78;;;13.50;99.90;;;;;;6201965;23;20092;-74
2023/11/19 12:17:54;;;;;;;17.98;2.45;;;13.60;99.90;;;;;;6200946;23;20017;-77
2023/11/19 12:20:24;;;;;;;20.77;2.85;;;13.70;99.90;;;;;;6201425;23;20061;-77
2023/11/19 12:22:51;;;;;;;14.70;2.78;;;13.70;99.90;;;;;;6200646;23;20024;-76
2023/11/19 12:25:17;;;;;;;20.15;4.22;;;13.70;99.90;;;;;;6201224;23;20009;-77
2023/11/19 12:27:51;;;;;;;19.20;3.03;;;13.80;99.90;;;;;;6203699;23;20043;-78
2023/11/19 12:30:24;;;;;;;17.33;2.60;;;13.80;99.90;;;;;;6178298;23;20021;-77
2023/11/19 12:32:50;;;;;;;23.52;5.25;;;13.80;99.90;;;;;;6202668;23;20083;-76
2023/11/19 12:35:16;;;;;;;28.13;3.97;;;13.80;99.90;;;;;;6203289;23;20008;-75
2023/11/19 12:37:43;;;;;;;23.48;2.90;;;13.80;99.90;;;;;;6203616;23;20019;-76
2023/11/19 12:40:13;;;;;;;13.18;1.70;;;13.80;99.90;;;;;;6202341;23;20013;-76